Time;durP1;ratioP1;P1;durP2;ratioP2;P2;SDS_P1;SDS_P2;PMS_P1;PMS_P2;Temp;Humidity;BMP_temperature;BMP_pressure;BME280_temperature;BME280_humidity;BME280_pressure;Samples;Min_cycle;Max_cycle;Signal;HPM_P1;HPM_P2
2023/10/04 00:00:20;;;;;;;18.60;4.15;;;;;;;-143.29;100.00;62188.47;5035038;28;20099;-84
2023/10/04 00:02:49;;;;;;;12.00;2.25;;;;;;;-143.29;100.00;62188.47;5034937;28;20415;-84
2023/10/04 00:05:16;;;;;;;22.77;2.97;;;;;;;-143.29;100.00;62188.47;5034952;28;20026;-84
2023/10/04 00:07:46;;;;;;;19.20;4.20;;;;;;;-143.29;100.00;62188.47;5034889;28;20057;-84
2023/10/04 00:10:12;;;;;;;14.82;2.42;;;;;;;-143.29;100.00;62188.47;5034901;28;20155;-84
2023/10/04 00:12:38;;;;;;;13.45;3.42;;;;;;;-143.29;100.00;62188.47;5049909;28;20048;-84
2023/10/04 00:15:09;;;;;;;16.40;2.75;;;;;;;-143.29;100.00;62188.47;5034696;28;20037;-85
2023/10/04 00:17:35;;;;;;;16.58;3.13;;;;;;;-143.29;100.00;62188.47;5016960;28;20018;-84
2023/10/04 00:20:02;;;;;;;15.52;2.92;;;;;;;-143.29;100.00;62188.47;5034607;28;20403;-84
2023/10/04 00:22:28;;;;;;;15.95;2.72;;;;;;;-143.29;100.00;62188.47;5034731;28;20543;-84
2023/10/04 00:24:53;;;;;;;16.65;2.55;;;;;;;-143.29;100.00;62188.47;5016999;28;20240;-84
2023/10/04 00:27:19;;;;;;;13.65;2.38;;;;;;;-143.29;100.00;62188.47;5034605;28;20082;-84
2023/10/04 00:29:44;;;;;;;14.73;2.42;;;;;;;-143.29;100.00;62188.47;5016885;28;20499;-84
2023/10/04 00:32:10;;;;;;;14.57;2.80;;;;;;;-143.29;100.00;62188.47;5034484;28;20627;-84
2023/10/04 00:34:38;;;;;;;12.85;3.47;;;;;;;-143.29;100.00;62188.47;5016561;28;20037;-84
2023/10/04 00:37:07;;;;;;;11.38;2.28;;;;;;;-143.29;100.00;62188.47;5016458;28;20403;-85
2023/10/04 00:39:34;;;;;;;31.40;3.17;;;;;;;-143.29;100.00;62188.47;5034155;28;20407;-84
2023/10/04 00:41:59;;;;;;;18.35;4.32;;;;;;;-143.29;100.00;62188.47;5034088;28;20021;-85
2023/10/04 00:44:26;;;;;;;14.02;2.53;;;;;;;-143.29;100.00;62188.47;5034324;28;20514;-84
2023/10/04 00:46:52;;;;;;;10.90;2.70;;;;;;;-143.29;100.00;62188.47;5034265;28;20033;-84
2023/10/04 00:49:18;;;;;;;14.60;2.85;;;;;;;-143.29;100.00;62188.47;5034054;28;20039;-84
2023/10/04 00:51:43;;;;;;;11.52;2.47;;;;;;;-143.29;100.00;62188.47;5034044;28;20383;-85
2023/10/04 00:54:10;;;;;;;11.77;2.33;;;;;;;-143.29;100.00;62188.47;5016245;28;20741;-84
2023/10/04 00:56:36;;;;;;;12.80;1.83;;;;;;;-143.29;100.00;62188.47;5034070;28;20066;-84
2023/10/04 00:59:05;;;;;;;15.85;3.00;;;;;;;-143.29;100.00;62188.47;5033869;28;20053;-85
2023/10/04 01:01:33;;;;;;;11.50;2.35;;;;;;;-143.29;100.00;62188.47;5016018;28;20440;-85
2023/10/04 01:04:02;;;;;;;18.13;4.10;;;;;;;-143.29;100.00;62188.47;5033794;28;20025;-85
2023/10/04 01:06:30;;;;;;;10.70;2.08;;;;;;;-143.29;100.00;62188.47;5016156;28;20041;-84
2023/10/04 01:08:56;;;;;;;9.75;2.40;;;;;;;-143.29;100.00;62188.47;5034102;28;20026;-85
2023/10/04 01:11:23;;;;;;;10.93;2.05;;;;;;;-143.29;100.00;62188.47;5015990;28;20022;-85
2023/10/04 01:13:53;;;;;;;13.70;2.22;;;;;;;-143.29;100.00;62188.47;5033568;28;20033;-85
2023/10/04 01:16:23;;;;;;;12.93;2.17;;;;;;;-143.29;100.00;62188.47;5033423;28;20475;-85
2023/10/04 01:18:49;;;;;;;18.80;2.33;;;;;;;-143.29;100.00;62188.47;5033414;28;20026;-85
2023/10/04 01:21:16;;;;;;;15.25;2.70;;;;;;;-143.29;100.00;62188.47;5033540;28;20407;-85
2023/10/04 01:23:42;;;;;;;19.38;2.97;;;;;;;-143.29;100.00;62188.47;5033422;28;20099;-85
2023/10/04 01:26:09;;;;;;;11.63;2.47;;;;;;;-143.29;100.00;62188.47;5033563;28;20025;-84
2023/10/04 01:28:34;;;;;;;13.52;2.88;;;;;;;-143.29;100.00;62188.47;5033344;28;20036;-85
2023/10/04 01:31:00;;;;;;;18.58;2.70;;;;;;;-143.29;100.00;62188.47;5015635;28;20044;-85
2023/10/04 01:33:28;;;;;;;14.70;2.80;;;;;;;-143.29;100.00;62188.47;5033529;28;20456;-85
2023/10/04 01:35:54;;;;;;;13.80;3.58;;;;;;;-143.29;100.00;62188.47;5033290;28;20029;-85
2023/10/04 01:38:24;;;;;;;12.75;2.63;;;;;;;-143.29;100.00;62188.47;5033186;28;20029;-84
2023/10/04 01:40:51;;;;;;;15.32;2.45;;;;;;;-143.29;100.00;62188.47;5033205;28;20461;-85
2023/10/04 01:43:16;;;;;;;10.15;2.35;;;;;;;-143.29;100.00;62188.47;5033032;28;20443;-85
2023/10/04 01:45:50;;;;;;;11.57;2.25;;;;;;;-143.29;100.00;62188.47;5033202;28;20025;-85
2023/10/04 01:48:16;;;;;;;17.05;2.83;;;;;;;-143.29;100.00;62188.47;5033008;28;20030;-85
2023/10/04 01:50:48;;;;;;;10.88;2.08;;;;;;;-143.29;100.00;62188.47;5033007;28;20076;-85
2023/10/04 01:53:15;;;;;;;14.25;3.10;;;;;;;-143.29;100.00;62188.47;5032847;28;20017;-85
2023/10/04 01:55:40;;;;;;;16.80;2.92;;;;;;;-143.29;100.00;62188.47;5048314;28;20026;-85
2023/10/04 01:58:08;;;;;;;14.57;2.58;;;;;;;-143.29;100.00;62188.47;5014569;28;20044;-85
2023/10/04 02:00:34;;;;;;;14.88;2.88;;;;;;;-143.29;100.00;62188.47;5033119;28;20021;-85
2023/10/04 02:03:01;;;;;;;12.75;2.70;;;;;;;-143.29;100.00;62188.47;5032396;28;20025;-85
2023/10/04 02:05:37;;;;;;;14.85;2.75;;;;;;;-143.29;100.00;62188.47;5033972;28;20106;-86
2023/10/04 02:08:05;;;;;;;11.77;3.17;;;;;;;-143.29;100.00;62188.47;5052889;28;20028;-85
2023/10/04 02:10:31;;;;;;;11.55;3.08;;;;;;;-143.29;100.00;62188.47;5052192;28;20105;-85
2023/10/04 02:12:59;;;;;;;13.70;2.90;;;;;;;-143.29;100.00;62188.47;5052375;28;20458;-86
2023/10/04 02:15:25;;;;;;;16.08;2.83;;;;;;;-143.29;100.00;62188.47;5034498;28;20116;-86
2023/10/04 02:17:50;;;;;;;12.40;2.78;;;;;;;-143.29;100.00;62188.47;5034303;28;20037;-86
2023/10/04 02:20:28;;;;;;;17.63;3.30;;;;;;;-143.29;100.00;62188.47;5051530;28;20024;-86
2023/10/04 02:22:54;;;;;;;16.70;2.42;;;;;;;-143.29;100.00;62188.47;5051912;28;20104;-86
2023/10/04 02:25:20;;;;;;;17.05;2.65;;;;;;;-143.29;100.00;62188.47;5052123;28;20028;-86
2023/10/04 02:27:48;;;;;;;11.70;2.33;;;;;;;-143.29;100.00;62188.47;5034187;28;20475;-86
2023/10/04 02:30:14;;;;;;;12.43;2.63;;;;;;;-143.29;100.00;62188.47;5052026;28;20021;-85
2023/10/04 02:32:43;;;;;;;19.38;2.75;;;;;;;-143.29;100.00;62188.47;5033901;28;20518;-86
2023/10/04 02:35:21;;;;;;;16.00;2.90;;;;;;;-143.29;100.00;62188.47;5051211;28;20029;-86
2023/10/04 02:37:48;;;;;;;14.02;3.00;;;;;;;-143.29;100.00;62188.47;5034021;28;20021;-86
2023/10/04 02:40:17;;;;;;;14.38;2.90;;;;;;;-143.29;100.00;62188.47;5052090;28;20086;-87
2023/10/04 02:42:47;;;;;;;8.27;2.05;;;;;;;-143.29;100.00;62188.47;5051913;28;20463;-86
2023/10/04 02:45:18;;;;;;;14.27;2.67;;;;;;;-143.29;100.00;62188.47;5051794;28;20033;-87
2023/10/04 02:47:44;;;;;;;7.10;2.10;;;;;;;-143.29;100.00;62188.47;5034025;28;20417;-86
2023/10/04 02:50:10;;;;;;;7.13;1.95;;;;;;;-143.29;100.00;62188.47;5051609;28;20036;-86
2023/10/04 02:52:36;;;;;;;14.60;3.47;;;;;;;-143.29;100.00;62188.47;5051901;28;20394;-86
2023/10/04 02:55:02;;;;;;;16.10;3.03;;;;;;;-143.29;100.00;62188.47;5033809;28;20555;-86
2023/10/04 02:57:28;;;;;;;12.15;2.60;;;;;;;-143.29;100.00;62188.47;5051846;28;20028;-86
2023/10/04 02:59:54;;;;;;;17.00;2.85;;;;;;;-143.29;100.00;62188.47;5051770;28;20027;-86
2023/10/04 03:02:21;;;;;;;10.10;2.50;;;;;;;-143.29;100.00;62188.47;5051972;28;20039;-86
2023/10/04 03:04:47;;;;;;;14.05;3.10;;;;;;;-143.29;100.00;62188.47;5050778;28;20115;-86
2023/10/04 03:07:13;;;;;;;11.90;2.10;;;;;;;-143.29;100.00;62188.47;5051270;28;20025;-87
2023/10/04 03:09:38;;;;;;;9.70;2.65;;;;;;;-143.29;100.00;62188.47;5032497;28;20396;-87
2023/10/04 03:12:04;;;;;;;17.50;3.00;;;;;;;-143.29;100.00;62188.47;5051413;28;20234;-87
2023/10/04 03:14:30;;;;;;;9.25;1.90;;;;;;;-143.29;100.00;62188.47;5033725;28;20124;-86
2023/10/04 03:16:58;;;;;;;12.70;2.63;;;;;;;-143.29;100.00;62188.47;5051491;28;20060;-86
2023/10/04 03:19:23;;;;;;;13.48;2.42;;;;;;;-143.29;100.00;62188.47;5033556;28;20082;-86
2023/10/04 03:21:49;;;;;;;7.78;2.03;;;;;;;-143.29;100.00;62188.47;5051580;28;20024;-87
2023/10/04 03:24:17;;;;;;;16.33;2.55;;;;;;;-143.29;100.00;62188.47;5051395;28;20036;-86
2023/10/04 03:26:44;;;;;;;20.80;3.40;;;;;;;-143.29;100.00;62188.47;5033481;28;20060;-87
2023/10/04 03:29:11;;;;;;;14.50;2.80;;;;;;;-143.29;100.00;62188.47;5051433;28;20021;-87
2023/10/04 03:31:39;;;;;;;18.15;2.65;;;;;;;-143.29;100.00;62188.47;5051254;28;20021;-86
2023/10/04 03:34:04;;;;;;;10.88;1.95;;;;;;;-143.29;100.00;62188.47;5033614;28;20142;-86
2023/10/04 03:36:34;;;;;;;9.45;2.20;;;;;;;-143.29;100.00;62188.47;5051570;28;20120;-87
2023/10/04 03:38:59;;;;;;;14.25;2.50;;;;;;;-143.29;100.00;62188.47;5051195;28;20063;-86
2023/10/04 03:41:25;;;;;;;12.25;2.25;;;;;;;-143.29;100.00;62188.47;5051450;28;20435;-87
2023/10/04 03:43:50;;;;;;;18.02;2.45;;;;;;;-143.29;100.00;62188.47;5033504;28;20025;-86
2023/10/04 03:46:18;;;;;;;13.30;3.15;;;;;;;-143.29;100.00;62188.47;5051099;28;20036;-86
2023/10/04 03:48:49;;;;;;;12.30;2.30;;;;;;;-143.29;100.00;62188.47;5051295;28;20029;-86
2023/10/04 03:51:20;;;;;;;10.75;2.00;;;;;;;-143.29;100.00;62188.47;5051286;28;20350;-86
2023/10/04 03:53:46;;;;;;;11.98;2.35;;;;;;;-143.29;100.00;62188.47;5051259;28;20025;-86
2023/10/04 03:56:12;;;;;;;11.27;2.30;;;;;;;-143.29;100.00;62188.47;5051264;28;20437;-87
2023/10/04 03:58:38;;;;;;;8.75;1.48;;;;;;;-143.29;100.00;62188.47;5051157;28;20542;-86
2023/10/04 04:01:03;;;;;;;9.45;2.45;;;;;;;-143.29;100.00;62188.47;5051509;28;20057;-87
2023/10/04 04:03:32;;;;;;;7.60;1.83;;;;;;;-143.29;100.00;62188.47;5051159;28;20040;-87
2023/10/04 04:05:57;;;;;;;16.60;1.90;;;;;;;-143.29;100.00;62188.47;5051156;28;20026;-87
2023/10/04 04:08:23;;;;;;;8.60;2.08;;;;;;;-143.29;100.00;62188.47;5050968;28;20025;-86
2023/10/04 04:10:50;;;;;;;6.60;1.35;;;;;;;-143.29;100.00;62188.47;5051087;28;20471;-86
2023/10/04 04:13:15;;;;;;;5.72;2.28;;;;;;;-143.29;100.00;62188.47;5050899;28;20049;-86
2023/10/04 04:15:41;;;;;;;10.05;1.67;;;;;;;-143.29;100.00;62188.47;5051108;28;20122;-86
2023/10/04 04:18:06;;;;;;;12.00;1.90;;;;;;;-143.29;100.00;62188.47;5033197;28;20024;-86
2023/10/04 04:20:40;;;;;;;12.50;1.77;;;;;;;-143.29;100.00;62188.47;5050881;28;20025;-86
2023/10/04 04:23:06;;;;;;;8.52;1.83;;;;;;;-143.29;100.00;62188.47;5054449;28;20033;-86
2023/10/04 04:25:32;;;;;;;12.23;2.30;;;;;;;-143.29;100.00;62188.47;5054550;28;20031;-86
2023/10/04 04:27:57;;;;;;;13.40;2.13;;;;;;;-143.29;100.00;62188.47;5054588;28;20094;-86
2023/10/04 04:30:28;;;;;;;13.18;2.78;;;;;;;-143.29;100.00;62188.47;5036574;28;20016;-86
2023/10/04 04:32:58;;;;;;;10.90;1.77;;;;;;;-143.29;100.00;62188.47;5036332;28;20035;-86
2023/10/04 04:38:19;;;;;;;11.52;1.80;;;;;;;-143.29;100.00;62188.47;5054448;28;20024;-86
2023/10/04 04:40:54;;;;;;;6.95;1.55;;;;;;;-143.29;100.00;62188.47;5054176;28;20471;-87
2023/10/04 04:45:53;;;;;;;4.78;1.15;;;;;;;-143.29;100.00;62188.47;5054002;28;20364;-87
2023/10/04 04:48:27;;;;;;;6.93;1.38;;;;;;;-143.29;100.00;62188.47;5054019;28;20025;-86
2023/10/04 04:50:57;;;;;;;4.63;0.90;;;;;;;-143.29;100.00;62188.47;5036057;28;20372;-87
2023/10/04 04:53:24;;;;;;;7.68;1.45;;;;;;;-143.29;100.00;62188.47;5036019;28;20025;-87
2023/10/04 04:55:50;;;;;;;9.45;1.63;;;;;;;-143.29;100.00;62188.47;5036163;28;20075;-86
2023/10/04 04:58:20;;;;;;;9.60;1.63;;;;;;;-143.29;100.00;62188.47;5053822;28;20104;-87
2023/10/04 05:00:50;;;;;;;10.32;2.22;;;;;;;-143.29;100.00;62188.47;5054293;28;20025;-86
2023/10/04 05:03:16;;;;;;;9.30;1.63;;;;;;;-143.29;100.00;62188.47;5053748;28;20364;-87
2023/10/04 05:05:42;;;;;;;10.45;1.75;;;;;;;-143.29;100.00;62188.47;5053754;28;20094;-86
2023/10/04 05:08:07;;;;;;;8.27;1.33;;;;;;;-143.29;100.00;62188.47;5053969;28;20471;-87
2023/10/04 05:10:39;;;;;;;8.82;1.35;;;;;;;-143.29;100.00;62188.47;5035939;28;20108;-86
2023/10/04 05:13:09;;;;;;;11.77;1.83;;;;;;;-143.29;100.00;62188.47;5053459;28;20025;-86
2023/10/04 05:15:38;;;;;;;8.27;1.60;;;;;;;-143.29;100.00;62188.47;5035811;28;20033;-86
2023/10/04 05:18:04;;;;;;;9.48;1.50;;;;;;;-143.29;100.00;62188.47;5035715;28;20078;-86
2023/10/04 05:20:31;;;;;;;12.07;2.17;;;;;;;-143.29;100.00;62188.47;5035503;28;20104;-86
2023/10/04 05:23:00;;;;;;;8.68;1.67;;;;;;;-143.29;100.00;62188.47;5053373;28;20079;-86
2023/10/04 05:25:29;;;;;;;7.93;1.70;;;;;;;-143.29;100.00;62188.47;5035446;28;20021;-86
2023/10/04 05:28:03;;;;;;;7.72;1.77;;;;;;;-143.29;100.00;62188.47;5053471;28;20053;-86
2023/10/04 05:30:29;;;;;;;6.43;1.60;;;;;;;-143.29;100.00;62188.47;5053377;28;20100;-86
2023/10/04 05:32:55;;;;;;;7.97;1.23;;;;;;;-143.29;100.00;62188.47;5051990;28;20025;-87
2023/10/04 05:35:21;;;;;;;9.00;2.28;;;;;;;-143.29;100.00;62188.47;5053335;28;20091;-87
2023/10/04 05:37:47;;;;;;;9.60;1.55;;;;;;;-143.29;100.00;62188.47;5035268;28;20032;-86
2023/10/04 05:40:16;;;;;;;11.85;2.65;;;;;;;-143.29;100.00;62188.47;5035281;28;20025;-86
2023/10/04 05:42:46;;;;;;;8.38;1.67;;;;;;;-143.29;100.00;62188.47;5052830;28;20048;-86
2023/10/04 05:45:12;;;;;;;11.95;1.90;;;;;;;-143.29;100.00;62188.47;5053119;28;20512;-86
2023/10/04 05:47:38;;;;;;;11.15;2.08;;;;;;;-143.29;100.00;62188.47;5035216;28;20467;-86
2023/10/04 05:50:05;;;;;;;7.88;1.55;;;;;;;-143.29;100.00;62188.47;5052862;28;20143;-86
2023/10/04 05:52:34;;;;;;;9.15;2.25;;;;;;;-143.29;100.00;62188.47;5034789;28;20608;-86
2023/10/04 05:55:00;;;;;;;14.10;1.80;;;;;;;-143.29;100.00;62188.47;5053064;28;20029;-86
2023/10/04 05:57:26;;;;;;;11.55;2.40;;;;;;;-143.29;100.00;62188.47;5052852;28;20098;-86
2023/10/04 05:59:51;;;;;;;10.95;1.83;;;;;;;-143.29;100.00;62188.47;5052762;28;20020;-86
2023/10/04 06:02:17;;;;;;;7.43;1.73;;;;;;;-143.29;100.00;62188.47;5052454;28;20025;-86
2023/10/04 06:04:42;;;;;;;7.07;1.55;;;;;;;-143.29;100.00;62188.47;5052649;28;20040;-86
2023/10/04 06:07:08;;;;;;;10.63;2.55;;;;;;;-143.29;100.00;62188.47;5052585;28;20025;-86
2023/10/04 06:09:35;;;;;;;7.38;1.35;;;;;;;-143.29;100.00;62188.47;5034706;28;20095;-86
2023/10/04 06:12:02;;;;;;;10.38;1.77;;;;;;;-143.29;100.00;62188.47;5052147;28;20108;-86
2023/10/04 06:14:27;;;;;;;14.57;2.35;;;;;;;-143.29;100.00;62188.47;5052401;28;20056;-86
2023/10/04 06:16:53;;;;;;;16.00;2.47;;;;;;;-143.29;100.00;62188.47;5052513;28;20048;-86
2023/10/04 06:19:19;;;;;;;12.02;2.10;;;;;;;-143.29;100.00;62188.47;5052399;28;20025;-85
2023/10/04 06:21:49;;;;;;;15.13;2.65;;;;;;;-143.29;100.00;62188.47;5052102;28;20434;-86
2023/10/04 06:24:15;;;;;;;9.05;1.88;;;;;;;-143.29;100.00;62188.47;5052270;28;20056;-86
2023/10/04 06:26:41;;;;;;;11.52;2.42;;;;;;;-143.29;100.00;62188.47;5052226;28;20048;-86
2023/10/04 06:29:07;;;;;;;11.20;2.63;;;;;;;-143.29;100.00;62188.47;5052344;28;20025;-86
2023/10/04 06:31:32;;;;;;;8.40;2.35;;;;;;;-143.29;100.00;62188.47;5052416;28;20455;-86
2023/10/04 06:33:59;;;;;;;16.17;2.65;;;;;;;-143.29;100.00;62188.47;5034224;28;20043;-86
2023/10/04 06:36:25;;;;;;;11.18;2.22;;;;;;;-143.29;100.00;62188.47;5034214;28;20061;-86
2023/10/04 06:38:51;;;;;;;11.98;2.13;;;;;;;-143.29;100.00;62188.47;5052066;28;20029;-86
2023/10/04 06:41:17;;;;;;;10.43;1.75;;;;;;;-143.29;100.00;62188.47;5052090;28;20071;-86
2023/10/04 06:43:43;;;;;;;7.07;2.10;;;;;;;-143.29;100.00;62188.47;5051794;28;20021;-86
2023/10/04 06:46:08;;;;;;;17.25;1.90;;;;;;;-143.29;100.00;62188.47;5050392;28;20059;-87
2023/10/04 06:48:34;;;;;;;11.88;1.83;;;;;;;-143.29;100.00;62188.47;5033563;28;20177;-85
2023/10/04 06:50:59;;;;;;;12.98;2.42;;;;;;;-143.29;100.00;62188.47;5051803;28;20381;-85
2023/10/04 06:53:25;;;;;;;14.68;2.75;;;;;;;-143.29;100.00;62188.47;5051680;28;20447;-85
2023/10/04 06:55:50;;;;;;;13.10;1.80;;;;;;;-143.29;100.00;62188.47;5051591;28;20032;-85
2023/10/04 06:58:16;;;;;;;9.20;2.05;;;;;;;-143.29;100.00;62188.47;5051767;28;20349;-85
2023/10/04 07:00:41;;;;;;;6.47;1.73;;;;;;;-143.29;100.00;62188.47;5050859;28;20025;-84
2023/10/04 07:03:07;;;;;;;13.50;2.78;;;;;;;-143.29;100.00;62188.47;5051568;28;20033;-85
2023/10/04 07:05:38;;;;;;;10.20;2.00;;;;;;;-143.29;100.00;62188.47;5051055;28;20025;-86
2023/10/04 07:08:05;;;;;;;11.65;1.42;;;;;;;-143.29;100.00;62188.47;5051252;28;20028;-85
2023/10/04 07:10:31;;;;;;;9.02;1.95;;;;;;;-143.29;100.00;62188.47;5051125;28;20037;-85
2023/10/04 07:12:57;;;;;;;9.82;1.58;;;;;;;-143.29;100.00;62188.47;5051508;28;20429;-85
2023/10/04 07:15:24;;;;;;;10.10;2.13;;;;;;;-143.29;100.00;62188.47;5050775;28;20040;-86
2023/10/04 07:17:51;;;;;;;8.48;1.48;;;;;;;-143.29;100.00;62188.47;5051195;28;20048;-86
2023/10/04 07:20:18;;;;;;;8.35;2.13;;;;;;;-143.29;100.00;62188.47;5051486;28;20036;-85
2023/10/04 07:23:03;;;;;;;9.57;1.73;;;;;;;-143.29;100.00;62188.47;5051518;28;20060;-86
2023/10/04 07:25:34;;;;;;;9.02;2.03;;;;;;;-143.29;100.00;62188.47;5033347;28;20021;-86
2023/10/04 07:28:02;;;;;;;11.32;2.40;;;;;;;-143.29;100.00;62188.47;5050854;28;20394;-86
2023/10/04 07:30:28;;;;;;;10.43;1.85;;;;;;;-143.29;100.00;62188.47;5020337;28;20021;-86
2023/10/04 07:32:54;;;;;;;9.20;2.25;;;;;;;-143.29;100.00;62188.47;5050962;28;20078;-89
2023/10/04 07:35:25;;;;;;;7.93;2.50;;;;;;;-143.29;100.00;62188.47;5051245;28;20025;-88
2023/10/04 07:37:54;;;;;;;11.75;1.83;;;;;;;-143.29;100.00;62188.47;5051317;28;20033;-89
2023/10/04 07:40:25;;;;;;;12.23;2.45;;;;;;;-143.29;100.00;62188.47;5051114;28;20037;-87
2023/10/04 07:42:53;;;;;;;9.02;1.60;;;;;;;-143.29;100.00;62188.47;5050988;28;20025;-86
2023/10/04 07:45:21;;;;;;;13.02;1.98;;;;;;;-143.29;100.00;62188.47;5050700;28;20031;-87
2023/10/04 07:47:47;;;;;;;9.85;1.75;;;;;;;-143.29;100.00;62188.47;5033281;28;20029;-88
2023/10/04 07:50:15;;;;;;;10.07;1.80;;;;;;;-143.29;100.00;62188.47;5051501;28;20021;-87
2023/10/04 07:52:44;;;;;;;8.98;2.08;;;;;;;-143.29;100.00;62188.47;5050903;28;20108;-87
2023/10/04 07:55:22;;;;;;;5.53;1.35;;;;;;;-143.29;100.00;62188.47;5050608;28;20043;-87
2023/10/04 07:57:50;;;;;;;8.40;1.40;;;;;;;-143.29;100.00;62188.47;5054810;28;20021;-88
2023/10/04 08:00:16;;;;;;;8.60;2.00;;;;;;;-143.29;100.00;62188.47;5032709;28;20249;-88
2023/10/04 08:02:49;;;;;;;17.52;1.85;;;;;;;-143.29;100.00;62188.47;5052507;28;20108;-87
2023/10/04 08:05:24;;;;;;;10.60;2.55;;;;;;;-143.29;100.00;62188.47;5050222;28;20017;-88
2023/10/04 08:07:52;;;;;;;9.85;1.83;;;;;;;-143.29;100.00;62188.47;5034345;28;20117;-89
2023/10/04 08:10:23;;;;;;;8.27;1.55;;;;;;;-143.29;100.00;62188.47;5053263;28;20056;-87
2023/10/04 08:12:51;;;;;;;13.82;1.98;;;;;;;-143.29;100.00;62188.47;5051773;28;20020;-88
2023/10/04 08:15:21;;;;;;;17.98;2.33;;;;;;;-143.29;100.00;62188.47;5051686;28;20053;-87
2023/10/04 08:17:51;;;;;;;6.82;1.85;;;;;;;-143.29;100.00;62188.47;5035141;28;20401;-87
2023/10/04 08:20:17;;;;;;;10.70;1.85;;;;;;;-143.29;100.00;62188.47;5051326;28;20033;-88
2023/10/04 08:22:44;;;;;;;9.75;1.67;;;;;;;-143.29;100.00;62188.47;5052272;28;20040;-88
2023/10/04 08:25:13;;;;;;;10.88;2.50;;;;;;;-143.29;100.00;62188.47;5051941;28;20475;-88
2023/10/04 08:27:39;;;;;;;8.48;1.52;;;;;;;-143.29;100.00;62188.47;5052419;28;20021;-88
2023/10/04 08:30:11;;;;;;;4.35;1.73;;;;;;;-143.29;100.00;62188.47;5045302;28;20431;-86
2023/10/04 08:32:37;;;;;;;11.15;1.60;;;;;;;-143.29;100.00;62188.47;5052842;28;20418;-87
2023/10/04 08:35:03;;;;;;;8.85;1.42;;;;;;;-143.29;100.00;62188.47;5054081;28;20087;-88
2023/10/04 08:37:29;;;;;;;9.73;2.05;;;;;;;-143.29;100.00;62188.47;5053791;28;20390;-87
2023/10/04 08:39:54;;;;;;;7.80;1.80;;;;;;;-143.29;100.00;62188.47;5054117;28;20029;-87
2023/10/04 08:42:20;;;;;;;8.82;1.55;;;;;;;-143.29;100.00;62188.47;5036241;28;20103;-87
2023/10/04 08:44:46;;;;;;;20.35;2.47;;;;;;;-143.29;100.00;62188.47;5035639;28;20102;-86
2023/10/04 08:47:12;;;;;;;10.43;1.65;;;;;;;-143.29;100.00;62188.47;5054058;28;20471;-87
2023/10/04 08:49:52;;;;;;;19.83;2.45;;;;;;;-143.29;100.00;62188.47;5053178;28;20047;-87
2023/10/04 08:52:36;;;;;;;8.88;1.73;;;;;;;-143.29;100.00;62188.47;5053747;28;20036;-87
2023/10/04 08:55:07;;;;;;;10.35;2.45;;;;;;;-143.29;100.00;62188.47;5051871;28;20068;-87
2023/10/04 08:57:39;;;;;;;8.15;1.65;;;;;;;-143.29;100.00;62188.47;5035489;28;20033;-87
2023/10/04 09:00:13;;;;;;;9.68;2.13;;;;;;;-143.29;100.00;62188.47;5053039;28;20029;-87
2023/10/04 09:02:42;;;;;;;9.05;1.52;;;;;;;-143.29;100.00;62188.47;5053252;28;20442;-87
2023/10/04 09:05:10;;;;;;;13.18;1.98;;;;;;;-143.29;100.00;62188.47;5053432;28;20025;-86
2023/10/04 09:07:35;;;;;;;5.97;1.17;;;;;;;-143.29;100.00;62188.47;5053172;28;20021;-86
2023/10/04 09:10:05;;;;;;;10.98;1.75;;;;;;;-143.29;100.00;62188.47;5053522;28;20021;-86
2023/10/04 09:12:31;;;;;;;8.55;1.55;;;;;;;-143.29;100.00;62188.47;5035047;28;20025;-86
2023/10/04 09:14:56;;;;;;;6.45;1.48;;;;;;;-143.29;100.00;62188.47;5052626;28;20532;-86
2023/10/04 09:17:24;;;;;;;10.32;1.48;;;;;;;-143.29;100.00;62188.47;5035102;28;20021;-86
2023/10/04 09:19:49;;;;;;;7.22;1.27;;;;;;;-143.29;100.00;62188.47;5053039;28;20074;-86
2023/10/04 09:22:17;;;;;;;8.93;1.73;;;;;;;-143.29;100.00;62188.47;5036278;28;20033;-87
2023/10/04 09:24:54;;;;;;;8.75;1.70;;;;;;;-143.29;100.00;62188.47;5053613;28;20118;-86
2023/10/04 09:27:19;;;;;;;8.68;1.92;;;;;;;-143.29;100.00;62188.47;5053050;28;20029;-89
2023/10/04 09:29:45;;;;;;;12.57;2.75;;;;;;;-143.29;100.00;62188.47;5052680;28;20077;-90
2023/10/04 09:32:10;;;;;;;7.47;1.80;;;;;;;-143.29;100.00;62188.47;5053503;28;20031;-87
2023/10/04 09:34:36;;;;;;;11.38;2.05;;;;;;;-143.29;100.00;62188.47;5053283;28;20036;-86
2023/10/04 09:37:01;;;;;;;9.07;1.77;;;;;;;-143.29;100.00;62188.47;5035004;28;20033;-87
2023/10/04 09:39:31;;;;;;;11.15;1.23;;;;;;;-143.29;100.00;62188.47;5052778;28;20029;-87
2023/10/04 09:41:57;;;;;;;5.70;1.35;;;;;;;-143.29;100.00;62188.47;5052246;28;20123;-93
2023/10/04 09:44:29;;;;;;;8.10;1.65;;;;;;;-143.29;100.00;62188.47;5034452;28;20013;-88
2023/10/04 09:47:00;;;;;;;5.43;1.63;;;;;;;-143.29;100.00;62188.47;5034621;28;20033;-87
2023/10/04 09:49:31;;;;;;;12.63;1.73;;;;;;;-143.29;100.00;62188.47;5052720;28;20079;-87
2023/10/04 09:52:01;;;;;;;13.05;1.60;;;;;;;-143.29;100.00;62188.47;5052256;28;20274;-88
2023/10/04 09:54:30;;;;;;;11.43;2.03;;;;;;;-143.29;100.00;62188.47;5032871;28;20092;-87
2023/10/04 09:56:57;;;;;;;9.55;1.80;;;;;;;-143.29;100.00;62188.47;5032728;28;20024;-88
2023/10/04 09:59:23;;;;;;;6.75;1.83;;;;;;;-143.29;100.00;62188.47;5032051;28;20032;-87
2023/10/04 10:01:59;;;;;;;7.32;1.60;;;;;;;-143.29;100.00;62188.47;5032695;28;20472;-87
2023/10/04 10:04:29;;;;;;;7.25;1.85;;;;;;;-143.29;100.00;62188.47;5032929;28;20105;-87
2023/10/04 10:07:09;;;;;;;9.95;2.15;;;;;;;-143.29;100.00;62188.47;5032565;28;20368;-87
2023/10/04 10:09:55;;;;;;;13.23;1.65;;;;;;;-143.29;100.00;62188.47;5032630;28;20519;-87
2023/10/04 10:12:22;;;;;;;16.05;2.20;;;;;;;-143.29;100.00;62188.47;5031910;28;20048;-87
2023/10/04 10:14:48;;;;;;;6.97;1.55;;;;;;;-143.29;100.00;62188.47;5031773;28;20029;-87
2023/10/04 10:17:17;;;;;;;12.88;2.03;;;;;;;-143.29;100.00;62188.47;5032404;28;20022;-88
2023/10/04 10:19:44;;;;;;;7.22;1.40;;;;;;;-143.29;100.00;62188.47;5032022;28;20037;-87
2023/10/04 10:22:19;;;;;;;9.32;1.45;;;;;;;-143.29;100.00;62188.47;5032157;28;20057;-88
2023/10/04 10:24:56;;;;;;;5.82;1.40;;;;;;;-143.29;100.00;62188.47;5014722;28;20075;-88
2023/10/04 10:27:23;;;;;;;7.90;1.60;;;;;;;-143.29;100.00;62188.47;5032281;28;20056;-87
2023/10/04 10:29:50;;;;;;;7.10;1.40;;;;;;;-143.29;100.00;62188.47;5031642;28;20555;-87
2023/10/04 10:32:20;;;;;;;8.45;1.30;;;;;;;-143.29;100.00;62188.47;5032047;28;20450;-87
2023/10/04 10:34:47;;;;;;;6.88;1.50;;;;;;;-143.29;100.00;62188.47;5031924;28;20043;-87
2023/10/04 10:37:19;;;;;;;10.80;1.60;;;;;;;-143.29;100.00;62188.47;5031948;28;20101;-87
2023/10/04 10:39:56;;;;;;;9.27;1.80;;;;;;;-143.29;100.00;62188.47;5032107;28;20036;-87
2023/10/04 10:42:23;;;;;;;9.52;1.63;;;;;;;-143.29;100.00;62188.47;5031948;28;20457;-87
2023/10/04 10:44:50;;;;;;;6.07;1.20;;;;;;;-143.29;100.00;62188.47;5031332;28;20033;-87
2023/10/04 10:47:24;;;;;;;7.32;1.30;;;;;;;-143.29;100.00;62188.47;5031858;28;20029;-88
2023/10/04 10:50:03;;;;;;;8.02;1.45;;;;;;;-143.29;100.00;62188.47;5014427;28;20040;-87
2023/10/04 10:52:38;;;;;;;10.98;1.88;;;;;;;-143.29;100.00;62188.47;5014354;28;20025;-88
2023/10/04 10:55:06;;;;;;;7.82;1.00;;;;;;;-143.29;100.00;62188.47;5031783;28;20498;-88
2023/10/04 10:57:35;;;;;;;6.57;1.45;;;;;;;-143.29;100.00;62188.47;5031737;28;20037;-88
2023/10/04 11:00:22;;;;;;;8.68;1.65;;;;;;;-143.29;100.00;62188.47;5031140;28;20024;-88
2023/10/04 11:02:48;;;;;;;10.45;1.88;;;;;;;-143.29;100.00;62188.47;5031891;28;20545;-87
2023/10/04 11:05:16;;;;;;;7.72;1.58;;;;;;;-143.29;100.00;62188.47;5031674;28;20567;-87
2023/10/04 11:07:44;;;;;;;4.55;1.00;;;;;;;-143.29;100.00;62188.47;5031578;28;20369;-87
2023/10/04 11:10:15;;;;;;;4.80;1.27;;;;;;;-143.29;100.00;62188.47;5031504;28;20108;-87
2023/10/04 11:12:42;;;;;;;8.05;2.05;;;;;;;-143.29;100.00;62188.47;5031524;28;20026;-87